sensor_id;sensor_type;location;lat;lon;timestamp;pressure;altitude;pressure_sealevel;temperature;humidity
50011;BME280;35899;50.352;19.390;2023-07-31T00:01:13;97360.55;;;17.42;96.46
50011;BME280;35899;50.352;19.390;2023-07-31T00:03:40;97360.94;;;17.42;96.40
50011;BME280;35899;50.352;19.390;2023-07-31T00:06:07;97361.55;;;17.41;96.53
50011;BME280;35899;50.352;19.390;2023-07-31T00:08:34;97363.90;;;17.39;96.32
50011;BME280;35899;50.352;19.390;2023-07-31T00:11:00;97362.09;;;17.36;96.24
50011;BME280;35899;50.352;19.390;2023-07-31T00:13:27;97360.56;;;17.34;96.50
50011;BME280;35899;50.352;19.390;2023-07-31T00:15:54;97362.52;;;17.32;96.53
50011;BME280;35899;50.352;19.390;2023-07-31T00:18:20;97368.52;;;17.30;96.57
50011;BME280;35899;50.352;19.390;2023-07-31T00:20:47;97369.33;;;17.27;96.52
50011;BME280;35899;50.352;19.390;2023-07-31T00:23:13;97368.11;;;17.24;96.62
50011;BME280;35899;50.352;19.390;2023-07-31T00:25:40;97370.28;;;17.23;96.72
50011;BME280;35899;50.352;19.390;2023-07-31T00:28:07;97374.11;;;17.22;96.81
50011;BME280;35899;50.352;19.390;2023-07-31T00:30:34;97376.64;;;17.19;96.96
50011;BME280;35899;50.352;19.390;2023-07-31T00:33:11;97373.05;;;17.18;97.11
50011;BME280;35899;50.352;19.390;2023-07-31T00:35:37;97376.09;;;17.16;97.19
50011;BME280;35899;50.352;19.390;2023-07-31T00:38:04;97375.19;;;17.15;97.28
50011;BME280;35899;50.352;19.390;2023-07-31T00:40:36;97379.09;;;17.14;97.50
50011;BME280;35899;50.352;19.390;2023-07-31T00:43:02;97381.54;;;17.12;97.54
50011;BME280;35899;50.352;19.390;2023-07-31T00:45:29;97384.27;;;17.12;97.57
50011;BME280;35899;50.352;19.390;2023-07-31T00:47:57;97382.23;;;17.11;97.73
50011;BME280;35899;50.352;19.390;2023-07-31T00:50:43;97384.86;;;17.09;97.77
50011;BME280;35899;50.352;19.390;2023-07-31T00:53:10;97382.95;;;17.08;97.94
50011;BME280;35899;50.352;19.390;2023-07-31T00:55:37;97380.52;;;17.07;98.30
50011;BME280;35899;50.352;19.390;2023-07-31T00:58:03;97381.50;;;17.06;98.22
50011;BME280;35899;50.352;19.390;2023-07-31T01:00:30;97384.09;;;17.03;98.25
50011;BME280;35899;50.352;19.390;2023-07-31T01:03:00;97379.63;;;16.99;98.30
50011;BME280;35899;50.352;19.390;2023-07-31T01:05:36;97377.30;;;16.96;98.47
50011;BME280;35899;50.352;19.390;2023-07-31T01:08:06;97377.58;;;16.95;98.68
50011;BME280;35899;50.352;19.390;2023-07-31T01:10:37;97381.19;;;16.93;98.65
50011;BME280;35899;50.352;19.390;2023-07-31T01:13:07;97380.39;;;16.90;98.86
50011;BME280;35899;50.352;19.390;2023-07-31T01:15:37;97381.17;;;16.88;98.91
50011;BME280;35899;50.352;19.390;2023-07-31T01:18:10;97381.63;;;16.85;98.98
50011;BME280;35899;50.352;19.390;2023-07-31T01:20:37;97381.80;;;16.81;99.15
50011;BME280;35899;50.352;19.390;2023-07-31T01:25:50;97380.30;;;16.76;99.45
50011;BME280;35899;50.352;19.390;2023-07-31T01:28:20;97383.71;;;16.71;99.43
50011;BME280;35899;50.352;19.390;2023-07-31T01:30:53;97388.57;;;16.68;99.59
50011;BME280;35899;50.352;19.390;2023-07-31T01:33:21;97399.12;;;16.66;99.63
50011;BME280;35899;50.352;19.390;2023-07-31T01:35:50;97398.38;;;16.65;99.79
50011;BME280;35899;50.352;19.390;2023-07-31T01:38:20;97400.55;;;16.64;99.85
50011;BME280;35899;50.352;19.390;2023-07-31T01:40:50;97407.33;;;16.63;99.88
50011;BME280;35899;50.352;19.390;2023-07-31T01:43:20;97408.91;;;16.59;99.88
50011;BME280;35899;50.352;19.390;2023-07-31T01:45:47;97407.48;;;16.56;99.82
50011;BME280;35899;50.352;19.390;2023-07-31T01:48:14;97406.00;;;16.52;99.77
50011;BME280;35899;50.352;19.390;2023-07-31T01:50:41;97405.86;;;16.48;99.65
50011;BME280;35899;50.352;19.390;2023-07-31T01:53:15;97405.84;;;16.47;99.89
50011;BME280;35899;50.352;19.390;2023-07-31T01:55:50;97408.79;;;16.44;99.80
50011;BME280;35899;50.352;19.390;2023-07-31T01:58:16;97410.43;;;16.39;99.69
50011;BME280;35899;50.352;19.390;2023-07-31T02:00:43;97411.81;;;16.34;99.80
50011;BME280;35899;50.352;19.390;2023-07-31T02:03:10;97414.69;;;16.32;99.88
50011;BME280;35899;50.352;19.390;2023-07-31T02:05:43;97419.89;;;16.30;99.94
50011;BME280;35899;50.352;19.390;2023-07-31T02:08:24;97419.05;;;16.32;99.98
50011;BME280;35899;50.352;19.390;2023-07-31T02:10:57;97413.34;;;16.33;100.00
50011;BME280;35899;50.352;19.390;2023-07-31T02:13:23;97414.75;;;16.33;100.00
50011;BME280;35899;50.352;19.390;2023-07-31T02:15:51;97421.50;;;16.33;100.00
50011;BME280;35899;50.352;19.390;2023-07-31T02:18:29;97422.29;;;16.32;100.00
50011;BME280;35899;50.352;19.390;2023-07-31T02:20:56;97418.48;;;16.32;100.00
50011;BME280;35899;50.352;19.390;2023-07-31T02:23:22;97426.11;;;16.29;100.00
50011;BME280;35899;50.352;19.390;2023-07-31T02:25:49;97427.63;;;16.26;100.00
50011;BME280;35899;50.352;19.390;2023-07-31T02:28:16;97429.73;;;16.22;100.00
50011;BME280;35899;50.352;19.390;2023-07-31T02:30:46;97434.33;;;16.20;100.00
50011;BME280;35899;50.352;19.390;2023-07-31T02:33:13;97436.88;;;16.19;100.00
50011;BME280;35899;50.352;19.390;2023-07-31T02:35:40;97440.59;;;16.17;100.00
50011;BME280;35899;50.352;19.390;2023-07-31T02:38:07;97445.60;;;16.16;100.00
50011;BME280;35899;50.352;19.390;2023-07-31T02:40:33;97445.59;;;16.16;100.00
50011;BME280;35899;50.352;19.390;2023-07-31T02:43:00;97444.27;;;16.15;100.00
50011;BME280;35899;50.352;19.390;2023-07-31T02:45:27;97450.83;;;16.18;100.00
50011;BME280;35899;50.352;19.390;2023-07-31T02:47:59;97456.25;;;16.19;100.00
50011;BME280;35899;50.352;19.390;2023-07-31T02:50:26;97454.16;;;16.19;100.00
50011;BME280;35899;50.352;19.390;2023-07-31T02:52:53;97455.30;;;16.17;100.00
50011;BME280;35899;50.352;19.390;2023-07-31T02:55:20;97452.11;;;16.16;100.00
50011;BME280;35899;50.352;19.390;2023-07-31T02:57:46;97452.83;;;16.15;100.00
50011;BME280;35899;50.352;19.390;2023-07-31T03:00:14;97455.80;;;16.17;100.00
50011;BME280;35899;50.352;19.390;2023-07-31T03:02:41;97459.14;;;16.20;100.00
50011;BME280;35899;50.352;19.390;2023-07-31T03:05:08;97453.05;;;16.20;100.00
50011;BME280;35899;50.352;19.390;2023-07-31T03:07:34;97457.84;;;16.21;100.00
50011;BME280;35899;50.352;19.390;2023-07-31T03:10:01;97460.23;;;16.21;100.00
50011;BME280;35899;50.352;19.390;2023-07-31T03:12:28;97462.27;;;16.24;100.00
50011;BME280;35899;50.352;19.390;2023-07-31T03:14:54;97468.08;;;16.27;100.00
50011;BME280;35899;50.352;19.390;2023-07-31T03:17:21;97469.16;;;16.27;100.00
50011;BME280;35899;50.352;19.390;2023-07-31T03:19:48;97472.46;;;16.25;100.00
50011;BME280;35899;50.352;19.390;2023-07-31T03:22:15;97473.05;;;16.24;100.00
50011;BME280;35899;50.352;19.390;2023-07-31T03:24:41;97471.12;;;16.19;100.00
50011;BME280;35899;50.352;19.390;2023-07-31T03:27:08;97468.10;;;16.14;100.00
50011;BME280;35899;50.352;19.390;2023-07-31T03:29:35;97460.88;;;16.14;100.00
50011;BME280;35899;50.352;19.390;2023-07-31T03:32:01;97458.99;;;16.11;100.00
50011;BME280;35899;50.352;19.390;2023-07-31T03:34:28;97456.94;;;16.09;100.00
50011;BME280;35899;50.352;19.390;2023-07-31T03:36:55;97457.60;;;16.09;100.00
50011;BME280;35899;50.352;19.390;2023-07-31T03:39:22;97465.02;;;16.11;100.00
50011;BME280;35899;50.352;19.390;2023-07-31T03:41:50;97469.27;;;16.12;100.00
50011;BME280;35899;50.352;19.390;2023-07-31T03:44:17;97474.82;;;16.13;100.00
50011;BME280;35899;50.352;19.390;2023-07-31T03:46:44;97480.20;;;16.17;100.00
50011;BME280;35899;50.352;19.390;2023-07-31T03:49:11;97490.65;;;16.24;100.00
50011;BME280;35899;50.352;19.390;2023-07-31T03:51:37;97491.02;;;16.31;100.00
50011;BME280;35899;50.352;19.390;2023-07-31T03:54:04;97489.27;;;16.38;100.00
50011;BME280;35899;50.352;19.390;2023-07-31T03:56:31;97483.12;;;16.44;100.00
50011;BME280;35899;50.352;19.390;2023-07-31T03:59:02;97483.45;;;16.53;100.00
50011;BME280;35899;50.352;19.390;2023-07-31T04:01:28;97482.95;;;16.59;100.00
50011;BME280;35899;50.352;19.390;2023-07-31T04:03:55;97484.55;;;16.64;100.00
50011;BME280;35899;50.352;19.390;2023-07-31T04:06:22;97488.62;;;16.67;100.00
50011;BME280;35899;50.352;19.390;2023-07-31T04:08:49;97490.10;;;16.69;100.00
50011;BME280;35899;50.352;19.390;2023-07-31T04:11:15;97489.27;;;16.71;100.00
50011;BME280;35899;50.352;19.390;2023-07-31T04:13:42;97490.55;;;16.72;100.00
50011;BME280;35899;50.352;19.390;2023-07-31T04:16:09;97488.52;;;16.71;100.00
50011;BME280;35899;50.352;19.390;2023-07-31T04:18:35;97492.71;;;16.73;99.99
50011;BME280;35899;50.352;19.390;2023-07-31T04:21:02;97493.97;;;16.74;99.83
50011;BME280;35899;50.352;19.390;2023-07-31T04:23:29;97490.45;;;16.78;99.69
50011;BME280;35899;50.352;19.390;2023-07-31T04:25:55;97488.90;;;16.87;99.76
50011;BME280;35899;50.352;19.390;2023-07-31T04:28:22;97488.55;;;17.00;99.75
50011;BME280;35899;50.352;19.390;2023-07-31T04:30:49;97490.45;;;17.16;99.48
50011;BME280;35899;50.352;19.390;2023-07-31T04:33:17;97492.81;;;17.32;98.80
50011;BME280;35899;50.352;19.390;2023-07-31T04:35:49;97495.33;;;17.46;98.31
50011;BME280;35899;50.352;19.390;2023-07-31T04:38:16;97497.55;;;17.62;98.00
50011;BME280;35899;50.352;19.390;2023-07-31T04:40:45;97501.36;;;17.70;97.64
50011;BME280;35899;50.352;19.390;2023-07-31T04:43:12;97498.80;;;17.71;97.01
50011;BME280;35899;50.352;19.390;2023-07-31T04:45:39;97495.19;;;17.76;96.45
50011;BME280;35899;50.352;19.390;2023-07-31T04:48:05;97498.34;;;17.81;96.17
50011;BME280;35899;50.352;19.390;2023-07-31T04:50:32;97502.37;;;17.86;95.62
50011;BME280;35899;50.352;19.390;2023-07-31T04:52:59;97505.88;;;17.86;95.03
50011;BME280;35899;50.352;19.390;2023-07-31T04:55:26;97503.86;;;17.87;94.61
50011;BME280;35899;50.352;19.390;2023-07-31T04:57:52;97503.78;;;17.86;94.28
50011;BME280;35899;50.352;19.390;2023-07-31T05:00:27;97504.34;;;17.82;93.85
50011;BME280;35899;50.352;19.390;2023-07-31T05:02:54;97500.77;;;17.79;93.70
50011;BME280;35899;50.352;19.390;2023-07-31T05:05:20;97502.52;;;17.76;93.07
50011;BME280;35899;50.352;19.390;2023-07-31T05:07:47;97497.98;;;17.73;93.18
50011;BME280;35899;50.352;19.390;2023-07-31T05:10:14;97499.39;;;17.74;93.07
50011;BME280;35899;50.352;19.390;2023-07-31T05:15:35;97507.09;;;17.89;93.06
50011;BME280;35899;50.352;19.390;2023-07-31T05:18:02;97510.24;;;18.05;92.94
50011;BME280;35899;50.352;19.390;2023-07-31T05:20:28;97509.51;;;18.16;92.14
50011;BME280;35899;50.352;19.390;2023-07-31T05:23:00;97512.98;;;18.30;92.54
50011;BME280;35899;50.352;19.390;2023-07-31T05:25:32;97509.02;;;18.51;92.63
50011;BME280;35899;50.352;19.390;2023-07-31T05:27:59;97508.84;;;18.62;91.92
50011;BME280;35899;50.352;19.390;2023-07-31T05:30:26;97513.35;;;18.66;91.00
50011;BME280;35899;50.352;19.390;2023-07-31T05:32:58;97517.30;;;18.65;91.01
50011;BME280;35899;50.352;19.390;2023-07-31T05:35:25;97517.00;;;18.67;91.04
50011;BME280;35899;50.352;19.390;2023-07-31T05:37:51;97521.05;;;18.69;90.00
50011;BME280;35899;50.352;19.390;2023-07-31T05:40:18;97520.66;;;18.74;89.87
50011;BME280;35899;50.352;19.390;2023-07-31T05:42:47;97521.80;;;18.80;89.66
50011;BME280;35899;50.352;19.390;2023-07-31T05:45:14;97525.20;;;18.90;89.62
50011;BME280;35899;50.352;19.390;2023-07-31T05:47:49;97526.39;;;18.97;89.33
50011;BME280;35899;50.352;19.390;2023-07-31T05:50:16;97523.80;;;19.03;89.04
50011;BME280;35899;50.352;19.390;2023-07-31T05:52:48;97524.61;;;19.07;88.31
50011;BME280;35899;50.352;19.390;2023-07-31T05:55:15;97527.75;;;19.10;88.05
50011;BME280;35899;50.352;19.390;2023-07-31T05:57:42;97527.51;;;19.21;87.82
50011;BME280;35899;50.352;19.390;2023-07-31T06:00:12;97530.48;;;19.26;87.53
50011;BME280;35899;50.352;19.390;2023-07-31T06:02:39;97529.86;;;19.31;87.32
50011;BME280;35899;50.352;19.390;2023-07-31T06:05:07;97531.91;;;19.32;86.88
50011;BME280;35899;50.352;19.390;2023-07-31T06:07:36;97533.36;;;19.32;86.55
50011;BME280;35899;50.352;19.390;2023-07-31T06:10:09;97529.05;;;19.27;85.32
50011;BME280;35899;50.352;19.390;2023-07-31T06:12:39;97530.89;;;19.20;84.90
50011;BME280;35899;50.352;19.390;2023-07-31T06:15:06;97528.54;;;19.19;84.89
50011;BME280;35899;50.352;19.390;2023-07-31T06:17:41;97530.72;;;19.21;85.18
50011;BME280;35899;50.352;19.390;2023-07-31T06:20:08;97534.02;;;19.39;85.75
50011;BME280;35899;50.352;19.390;2023-07-31T06:22:38;97534.26;;;19.60;84.76
50011;BME280;35899;50.352;19.390;2023-07-31T06:25:08;97533.05;;;19.68;83.88
50011;BME280;35899;50.352;19.390;2023-07-31T06:27:56;97530.55;;;19.68;82.89
50011;BME280;35899;50.352;19.390;2023-07-31T06:30:26;97525.52;;;19.72;82.29
50011;BME280;35899;50.352;19.390;2023-07-31T06:32:56;97525.19;;;19.84;82.56
50011;BME280;35899;50.352;19.390;2023-07-31T06:35:32;97523.27;;;19.94;82.26
50011;BME280;35899;50.352;19.390;2023-07-31T06:38:22;97525.50;;;20.00;81.99
50011;BME280;35899;50.352;19.390;2023-07-31T06:40:53;97524.39;;;20.07;81.91
50011;BME280;35899;50.352;19.390;2023-07-31T06:43:32;97520.36;;;20.23;82.19
50011;BME280;35899;50.352;19.390;2023-07-31T06:46:17;97520.33;;;20.34;81.57
50011;BME280;35899;50.352;19.390;2023-07-31T06:48:49;97517.13;;;20.42;81.24
50011;BME280;35899;50.352;19.390;2023-07-31T06:51:16;97517.96;;;20.44;80.39
50011;BME280;35899;50.352;19.390;2023-07-31T06:53:51;97518.02;;;20.43;80.17
50011;BME280;35899;50.352;19.390;2023-07-31T06:56:19;97522.90;;;20.47;80.18
50011;BME280;35899;50.352;19.390;2023-07-31T06:58:55;97524.64;;;20.53;80.15
50011;BME280;35899;50.352;19.390;2023-07-31T07:01:27;97529.17;;;20.49;79.44
50011;BME280;35899;50.352;19.390;2023-07-31T07:04:07;97531.84;;;20.50;79.66
50011;BME280;35899;50.352;19.390;2023-07-31T07:06:37;97529.87;;;20.55;79.02
50011;BME280;35899;50.352;19.390;2023-07-31T07:14:30;97530.57;;;20.76;77.85
50011;BME280;35899;50.352;19.390;2023-07-31T07:17:13;97530.34;;;20.85;77.76
50011;BME280;35899;50.352;19.390;2023-07-31T07:19:58;97530.92;;;20.94;76.05
50011;BME280;35899;50.352;19.390;2023-07-31T07:22:34;97527.05;;;20.98;76.06
50011;BME280;35899;50.352;19.390;2023-07-31T07:25:09;97529.27;;;21.07;75.89
50011;BME280;35899;50.352;19.390;2023-07-31T07:27:49;97523.94;;;21.14;74.92
50011;BME280;35899;50.352;19.390;2023-07-31T07:30:24;97525.37;;;21.20;74.34
50011;BME280;35899;50.352;19.390;2023-07-31T07:33:35;97524.09;;;21.33;73.65
50011;BME280;35899;50.352;19.390;2023-07-31T07:36:19;97523.05;;;21.37;71.66
50011;BME280;35899;50.352;19.390;2023-07-31T07:41:54;97521.54;;;21.24;70.93
50011;BME280;35899;50.352;19.390;2023-07-31T07:50:46;97520.65;;;21.41;70.44
50011;BME280;35899;50.352;19.390;2023-07-31T07:53:17;97526.70;;;21.50;69.01
50011;BME280;35899;50.352;19.390;2023-07-31T07:56:08;97527.95;;;21.52;68.77
50011;BME280;35899;50.352;19.390;2023-07-31T08:02:02;97521.19;;;21.72;67.94
50011;BME280;35899;50.352;19.390;2023-07-31T08:04:36;97522.77;;;21.82;67.19
50011;BME280;35899;50.352;19.390;2023-07-31T08:07:34;97527.02;;;21.92;67.25
50011;BME280;35899;50.352;19.390;2023-07-31T08:10:24;97528.96;;;22.23;67.38
50011;BME280;35899;50.352;19.390;2023-07-31T08:16:05;97534.67;;;22.58;65.01
50011;BME280;35899;50.352;19.390;2023-07-31T08:18:58;97537.82;;;22.74;64.33
50011;BME280;35899;50.352;19.390;2023-07-31T08:21:49;97535.77;;;22.83;63.79
50011;BME280;35899;50.352;19.390;2023-07-31T08:33:30;97536.56;;;23.40;61.90
50011;BME280;35899;50.352;19.390;2023-07-31T08:36:11;97546.73;;;23.31;61.08
50011;BME280;35899;50.352;19.390;2023-07-31T08:39:01;97540.85;;;23.11;60.38
50011;BME280;35899;50.352;19.390;2023-07-31T08:41:44;97541.98;;;22.96;60.87
50011;BME280;35899;50.352;19.390;2023-07-31T08:44:34;97546.50;;;22.89;60.76
50011;BME280;35899;50.352;19.390;2023-07-31T08:47:09;97542.14;;;22.73;60.47
50011;BME280;35899;50.352;19.390;2023-07-31T08:52:57;97544.85;;;22.40;60.66
50011;BME280;35899;50.352;19.390;2023-07-31T08:55:42;97546.02;;;22.32;60.96
50011;BME280;35899;50.352;19.390;2023-07-31T09:01:22;97543.11;;;22.42;60.96
50011;BME280;35899;50.352;19.390;2023-07-31T09:04:32;97544.01;;;22.35;60.96
50011;BME280;35899;50.352;19.390;2023-07-31T09:13:26;97538.21;;;22.86;59.74
50011;BME280;35899;50.352;19.390;2023-07-31T09:16:36;97536.98;;;23.11;58.99
50011;BME280;35899;50.352;19.390;2023-07-31T09:19:34;97534.30;;;23.10;58.17
50011;BME280;35899;50.352;19.390;2023-07-31T09:22:40;97538.69;;;23.18;58.72
50011;BME280;35899;50.352;19.390;2023-07-31T09:25:47;97530.34;;;23.59;59.32
50011;BME280;35899;50.352;19.390;2023-07-31T09:28:47;97520.11;;;24.05;58.12
50011;BME280;35899;50.352;19.390;2023-07-31T09:37:44;97526.99;;;23.92;55.68
50011;BME280;35899;50.352;19.390;2023-07-31T09:43:55;97513.25;;;24.40;54.89
50011;BME280;35899;50.352;19.390;2023-07-31T09:49:36;97518.27;;;24.75;53.95
50011;BME280;35899;50.352;19.390;2023-07-31T09:55:51;97514.23;;;25.37;52.86
50011;BME280;35899;50.352;19.390;2023-07-31T09:58:51;97507.23;;;25.83;53.34
50011;BME280;35899;50.352;19.390;2023-07-31T10:05:06;97508.88;;;26.23;49.34
50011;BME280;35899;50.352;19.390;2023-07-31T10:11:09;97507.45;;;27.07;48.11
50011;BME280;35899;50.352;19.390;2023-07-31T10:14:09;97503.45;;;26.90;46.74
50011;BME280;35899;50.352;19.390;2023-07-31T10:17:17;97503.84;;;27.04;47.10
50011;BME280;35899;50.352;19.390;2023-07-31T10:29:46;97494.23;;;27.02;45.16
50011;BME280;35899;50.352;19.390;2023-07-31T10:32:53;97498.40;;;26.88;45.48
50011;BME280;35899;50.352;19.390;2023-07-31T10:36:01;97495.61;;;27.34;45.79
50011;BME280;35899;50.352;19.390;2023-07-31T10:42:11;97482.64;;;27.97;43.12
50011;BME280;35899;50.352;19.390;2023-07-31T10:51:35;97474.81;;;29.87;41.21
50011;BME280;35899;50.352;19.390;2023-07-31T10:57:49;97478.27;;;29.32;40.24
50011;BME280;35899;50.352;19.390;2023-07-31T11:10:24;97461.88;;;29.24;38.87
50011;BME280;35899;50.352;19.390;2023-07-31T11:19:45;97449.40;;;31.75;35.29
50011;BME280;35899;50.352;19.390;2023-07-31T11:22:34;97458.32;;;30.80;36.33
50011;BME280;35899;50.352;19.390;2023-07-31T11:38:23;97454.49;;;34.64;32.54
50011;BME280;35899;50.352;19.390;2023-07-31T11:44:37;97452.54;;;34.50;32.14
50011;BME280;35899;50.352;19.390;2023-07-31T11:47:44;97448.96;;;35.10;31.16
50011;BME280;35899;50.352;19.390;2023-07-31T11:51:06;97450.38;;;34.20;31.82
50011;BME280;35899;50.352;19.390;2023-07-31T11:59:59;97446.70;;;34.01;31.08
50011;BME280;35899;50.352;19.390;2023-07-31T12:06:14;97440.38;;;32.34;32.30
50011;BME280;35899;50.352;19.390;2023-07-31T12:09:26;97431.45;;;31.27;32.89
50011;BME280;35899;50.352;19.390;2023-07-31T12:15:41;97422.02;;;31.58;33.52
50011;BME280;35899;50.352;19.390;2023-07-31T12:25:02;97415.11;;;35.54;30.30
50011;BME280;35899;50.352;19.390;2023-07-31T12:28:09;97407.73;;;35.65;30.09
50011;BME280;35899;50.352;19.390;2023-07-31T12:37:23;97401.08;;;35.37;29.01
50011;BME280;35899;50.352;19.390;2023-07-31T12:40:31;97398.54;;;34.03;30.41
50011;BME280;35899;50.352;19.390;2023-07-31T12:43:41;97393.33;;;33.69;31.07
50011;BME280;35899;50.352;19.390;2023-07-31T12:46:47;97389.78;;;33.35;31.73
50011;BME280;35899;50.352;19.390;2023-07-31T12:59:15;97389.14;;;30.65;33.62
50011;BME280;35899;50.352;19.390;2023-07-31T13:05:33;97382.70;;;31.08;33.12
50011;BME280;35899;50.352;19.390;2023-07-31T13:11:48;97375.13;;;31.02;32.73
50011;BME280;35899;50.352;19.390;2023-07-31T13:14:55;97373.55;;;30.20;32.47
50011;BME280;35899;50.352;19.390;2023-07-31T13:24:17;97363.79;;;30.89;33.15
50011;BME280;35899;50.352;19.390;2023-07-31T13:27:24;97357.39;;;34.01;31.43
50011;BME280;35899;50.352;19.390;2023-07-31T13:37:02;97365.33;;;35.43;28.22
50011;BME280;35899;50.352;19.390;2023-07-31T13:46:38;97361.40;;;35.15;28.12
50011;BME280;35899;50.352;19.390;2023-07-31T13:49:46;97357.30;;;34.54;28.90
50011;BME280;35899;50.352;19.390;2023-07-31T14:05:55;97340.73;;;38.36;25.87
50011;BME280;35899;50.352;19.390;2023-07-31T14:25:10;97342.94;;;31.90;30.50
50011;BME280;35899;50.352;19.390;2023-07-31T14:28:12;97348.82;;;30.77;31.40
50011;BME280;35899;50.352;19.390;2023-07-31T14:34:32;97344.91;;;28.97;33.86
50011;BME280;35899;50.352;19.390;2023-07-31T14:44:49;97342.30;;;27.25;36.46
50011;BME280;35899;50.352;19.390;2023-07-31T14:47:57;97335.92;;;26.96;36.93
50011;BME280;35899;50.352;19.390;2023-07-31T14:54:37;97328.95;;;26.29;37.92
50011;BME280;35899;50.352;19.390;2023-07-31T14:57:44;97326.86;;;26.22;38.08
50011;BME280;35899;50.352;19.390;2023-07-31T15:10:13;97325.12;;;25.79;40.31
50011;BME280;35899;50.352;19.390;2023-07-31T15:13:21;97320.92;;;25.69;40.25
50011;BME280;35899;50.352;19.390;2023-07-31T15:22:26;97319.52;;;25.48;40.97
50011;BME280;35899;50.352;19.390;2023-07-31T15:28:27;97314.56;;;24.98;41.31
50011;BME280;35899;50.352;19.390;2023-07-31T15:34:27;97310.78;;;24.62;42.07
50011;BME280;35899;50.352;19.390;2023-07-31T15:37:34;97308.34;;;24.61;42.23
50011;BME280;35899;50.352;19.390;2023-07-31T15:40:20;97303.56;;;24.68;42.75
50011;BME280;35899;50.352;19.390;2023-07-31T15:43:28;97300.27;;;24.86;42.17
50011;BME280;35899;50.352;19.390;2023-07-31T15:58:57;97287.16;;;32.51;34.43
50011;BME280;35899;50.352;19.390;2023-07-31T16:05:11;97286.06;;;35.64;31.95
50011;BME280;35899;50.352;19.390;2023-07-31T16:08:19;97291.45;;;35.51;30.35
50011;BME280;35899;50.352;19.390;2023-07-31T16:14:31;97282.72;;;35.84;28.35
50011;BME280;35899;50.352;19.390;2023-07-31T16:27:01;97272.94;;;34.10;29.18
50011;BME280;35899;50.352;19.390;2023-07-31T16:33:15;97279.12;;;31.79;31.43
50011;BME280;35899;50.352;19.390;2023-07-31T16:39:29;97274.20;;;29.78;33.04
50011;BME280;35899;50.352;19.390;2023-07-31T16:42:36;97266.20;;;28.92;34.15
50011;BME280;35899;50.352;19.390;2023-07-31T16:48:51;97265.12;;;27.59;36.14
50011;BME280;35899;50.352;19.390;2023-07-31T16:55:06;97268.52;;;26.46;37.58
50011;BME280;35899;50.352;19.390;2023-07-31T16:58:15;97269.21;;;25.96;38.44
50011;BME280;35899;50.352;19.390;2023-07-31T17:07:40;97264.96;;;26.41;39.72
50011;BME280;35899;50.352;19.390;2023-07-31T17:10:51;97261.68;;;28.19;38.46
50011;BME280;35899;50.352;19.390;2023-07-31T17:17:39;97262.58;;;27.55;38.29
50011;BME280;35899;50.352;19.390;2023-07-31T17:20:46;97259.02;;;27.10;38.56
50011;BME280;35899;50.352;19.390;2023-07-31T17:27:07;97267.11;;;26.08;39.76
50011;BME280;35899;50.352;19.390;2023-07-31T17:30:16;97266.66;;;25.57;40.98
50011;BME280;35899;50.352;19.390;2023-07-31T17:36:36;97277.36;;;24.87;42.09
50011;BME280;35899;50.352;19.390;2023-07-31T17:39:50;97279.25;;;24.54;42.51
50011;BME280;35899;50.352;19.390;2023-07-31T17:42:46;97274.05;;;24.24;43.15
50011;BME280;35899;50.352;19.390;2023-07-31T17:45:55;97272.16;;;23.92;43.96
50011;BME280;35899;50.352;19.390;2023-07-31T17:49:17;97269.91;;;23.71;44.85
50011;BME280;35899;50.352;19.390;2023-07-31T17:52:29;97270.20;;;23.48;45.68
50011;BME280;35899;50.352;19.390;2023-07-31T17:55:21;97272.48;;;23.24;47.10
50011;BME280;35899;50.352;19.390;2023-07-31T17:58:46;97265.39;;;22.99;47.63
50011;BME280;35899;50.352;19.390;2023-07-31T18:01:56;97274.23;;;22.74;48.48
50011;BME280;35899;50.352;19.390;2023-07-31T18:04:46;97276.34;;;22.51;48.62
50011;BME280;35899;50.352;19.390;2023-07-31T18:19:21;97278.88;;;21.82;50.48
50011;BME280;35899;50.352;19.390;2023-07-31T18:22:36;97285.48;;;21.66;50.78
50011;BME280;35899;50.352;19.390;2023-07-31T18:25:33;97287.42;;;21.47;51.51
50011;BME280;35899;50.352;19.390;2023-07-31T18:28:25;97290.73;;;21.30;51.75
50011;BME280;35899;50.352;19.390;2023-07-31T18:31:12;97288.28;;;21.19;52.76
50011;BME280;35899;50.352;19.390;2023-07-31T18:33:46;97286.75;;;21.06;53.15
50011;BME280;35899;50.352;19.390;2023-07-31T18:36:29;97287.08;;;20.92;53.62
50011;BME280;35899;50.352;19.390;2023-07-31T18:39:31;97284.38;;;20.79;54.16
50011;BME280;35899;50.352;19.390;2023-07-31T18:44:51;97283.14;;;20.53;54.97
50011;BME280;35899;50.352;19.390;2023-07-31T18:47:23;97283.81;;;20.40;54.99
50011;BME280;35899;50.352;19.390;2023-07-31T18:49:53;97288.09;;;20.32;55.35
50011;BME280;35899;50.352;19.390;2023-07-31T18:52:28;97297.05;;;20.25;55.27
50011;BME280;35899;50.352;19.390;2023-07-31T18:55:07;97301.45;;;20.18;55.64
50011;BME280;35899;50.352;19.390;2023-07-31T18:57:41;97303.48;;;20.09;56.39
50011;BME280;35899;50.352;19.390;2023-07-31T19:00:21;97304.08;;;20.00;57.04
50011;BME280;35899;50.352;19.390;2023-07-31T19:02:59;97301.31;;;19.85;57.26
50011;BME280;35899;50.352;19.390;2023-07-31T19:05:27;97300.41;;;19.74;57.57
50011;BME280;35899;50.352;19.390;2023-07-31T19:08:07;97307.33;;;19.68;57.58
50011;BME280;35899;50.352;19.390;2023-07-31T19:10:47;97307.80;;;19.62;57.69
50011;BME280;35899;50.352;19.390;2023-07-31T19:13:23;97309.23;;;19.59;58.00
50011;BME280;35899;50.352;19.390;2023-07-31T19:16:04;97310.20;;;19.57;58.22
50011;BME280;35899;50.352;19.390;2023-07-31T19:18:34;97310.27;;;19.55;58.66
50011;BME280;35899;50.352;19.390;2023-07-31T19:21:03;97310.15;;;19.49;58.82